Time;durP1;ratioP1;P1;durP2;ratioP2;P2;SDS_P1;SDS_P2;PMS_P1;PMS_P2;Temp;Humidity;BMP_temperature;BMP_pressure;BME280_temperature;BME280_humidity;BME280_pressure;Samples;Min_cycle;Max_cycle;Signal;HPM_P1;HPM_P2
2023/03/20 00:02:18;;;;;;;;;;;;;;;-144.99;100.00;52403.25;5026176;28;19929;-77
2023/03/20 00:04:45;;;;;;;;;;;;;;;-144.99;100.00;52362.50;5024193;28;19930;-76
2023/03/20 00:07:12;;;;;;;;;;;;;;;-144.99;100.00;52399.19;5023580;28;19936;-67
2023/03/20 00:09:39;;;;;;;;;;;;;;;-144.99;100.00;52407.31;5015449;28;19972;-68
2023/03/20 00:12:06;;;;;;;;;;;;;;;-144.99;100.00;52407.31;5006898;28;20005;-66
2023/03/20 00:14:34;;;;;;;;;;;;;;;-144.99;100.00;52391.03;5007826;28;20337;-66
2023/03/20 00:17:01;;;;;;;;;;;;;;;-144.99;100.00;52399.19;5014273;28;20313;-66
2023/03/20 00:19:29;;;;;;;;;;;;;;;-144.99;100.00;52382.88;5012911;28;20329;-65
2023/03/20 00:21:56;;;;;;;;;;;;;;;-144.99;100.00;52386.94;5011987;28;19933;-66
2023/03/20 00:24:24;;;;;;;;;;;;;;;-144.99;100.00;52419.56;5014951;28;20014;-65
2023/03/20 00:26:51;;;;;;;;;;;;;;;-144.99;100.00;52415.47;5014302;28;19968;-67
2023/03/20 00:29:21;;;;;;;;;;;;;;;-144.99;100.00;52407.31;5022392;28;19983;-69
2023/03/20 00:31:48;;;;;;;;;;;;;;;-144.99;100.00;52384.91;5009943;28;20022;-68
2023/03/20 00:34:16;;;;;;;;;;;;;;;-144.99;100.00;52358.41;5024524;28;20043;-69
2023/03/20 00:36:42;;;;;;;;;;;;;;;-144.99;100.00;52399.19;5018304;28;19983;-67
2023/03/20 00:39:09;;;;;;;;;;;;;;;-144.99;100.00;52435.88;5018035;28;19929;-67
2023/03/20 00:41:41;;;;;;;;;;;;;;;-144.99;100.00;52378.78;5012987;28;20000;-64
2023/03/20 00:44:14;;;;;;;;;;;;;;;-144.99;100.00;52378.78;5020291;28;19964;-65
2023/03/20 00:46:41;;;;;;;;;;;;;;;-144.99;100.00;52403.25;5014578;28;19929;-66
2023/03/20 00:49:09;;;;;;;;;;;;;;;-144.99;100.00;52399.19;5013737;28;20416;-66
2023/03/20 00:51:36;;;;;;;;;;;;;;;-144.99;100.00;52366.56;5018574;28;20387;-73
2023/03/20 00:54:05;;;;;;;;;;;;;;;-144.99;100.00;52403.25;5012312;28;20458;-72
2023/03/20 00:56:33;;;;;;;;;;;;;;;-144.99;100.00;52386.94;5018487;28;19925;-72
2023/03/20 00:59:02;;;;;;;;;;;;;;;-144.99;100.00;52397.13;5017448;28;19929;-71
2023/03/20 01:01:29;;;;;;;;;;;;;;;-144.99;100.00;52388.97;5018678;28;20424;-68
2023/03/20 01:03:55;;;;;;;;;;;;;;;-144.99;100.00;52407.31;5017404;28;20379;-72
2023/03/20 01:06:22;;;;;;;;;;;;;;;-144.99;100.00;52448.09;5012519;28;20032;-74
2023/03/20 01:08:49;;;;;;;;;;;;;;;-144.99;100.00;52366.56;5020531;28;20371;-71
2023/03/20 01:11:20;;;;;;;;;;;;;;;-144.99;100.00;52407.31;5023598;28;20341;-71
2023/03/20 01:13:47;;;;;;;;;;;;;;;-144.99;100.00;52407.31;5019439;28;19937;-71
2023/03/20 01:16:20;;;;;;;;;;;;;;;-144.99;100.00;52403.25;5025322;28;19963;-72
2023/03/20 01:18:46;;;;;;;;;;;;;;;-144.99;100.00;52386.94;5025521;28;19929;-71
2023/03/20 01:21:13;;;;;;;;;;;;;;;-144.99;100.00;52435.88;5019654;28;19944;-71
2023/03/20 01:23:40;;;;;;;;;;;;;;;-144.99;100.00;52419.56;5018985;28;20048;-72
2023/03/20 01:26:14;;;;;;;;;;;;;;;-144.99;100.00;52386.94;5009260;28;20442;-72
2023/03/20 01:28:41;;;;;;;;;;;;;;;-144.99;100.00;52444.03;5010757;28;20070;-72
2023/03/20 01:31:09;;;;;;;;;;;;;;;-144.99;100.00;52439.94;5026565;28;19929;-71
2023/03/20 01:33:37;;;;;;;;;;;;;;;-144.99;100.00;52378.78;5018773;28;19951;-69
2023/03/20 01:36:04;;;;;;;;;;;;;;;-144.99;100.00;52378.78;5015153;28;19929;-69
2023/03/20 01:38:30;;;;;;;;;;;;;;;-144.99;100.00;52427.72;5019079;28;19987;-71
2023/03/20 01:40:59;;;;;;;;;;;;;;;-144.99;100.00;52378.78;5021551;28;20521;-70
2023/03/20 01:43:27;;;;;;;;;;;;;;;-144.99;100.00;52411.41;5022604;28;20081;-70
2023/03/20 01:46:00;;;;;;;;;;;;;;;-144.99;100.00;52386.94;5017856;28;20387;-70
2023/03/20 01:48:31;;;;;;;;;;;;;;;-144.99;100.00;52435.88;5013940;28;19929;-70
2023/03/20 01:50:59;;;;;;;;;;;;;;;-144.99;100.00;52419.56;4669696;28;10000377;-70
2023/03/20 01:53:26;;;;;;;;;;;;;;;-144.99;100.00;52431.78;5019680;28;19937;-69
2023/03/20 01:55:55;;;;;;;;;;;;;;;-144.99;100.00;52370.63;5019383;28;19933;-64
2023/03/20 01:58:26;;;;;;;;;;;;;;;-144.99;100.00;52427.72;5019614;28;19980;-66
2023/03/20 02:00:52;;;;;;;;;;;;;;;-144.99;100.00;52435.88;5015742;28;19991;-66
2023/03/20 02:03:20;;;;;;;;;;;;;;;-144.99;100.00;52421.59;5022173;28;19929;-67
2023/03/20 02:05:46;;;;;;;;;;;;;;;-144.99;100.00;52452.16;5022285;28;19976;-67
2023/03/20 02:08:20;;;;;;;;;;;;;;;-144.99;100.00;52378.78;5027036;28;19929;-65
2023/03/20 02:10:47;;;;;;;;;;;;;;;-144.99;100.00;52452.16;4958767;28;1961166;-66
2023/03/20 02:13:15;;;;;;;;;;;;;;;-144.99;100.00;52407.31;5030902;28;19957;-65
2023/03/20 02:16:04;;;;;;;;;;;;;;;-144.99;100.00;52399.19;5018249;28;20196;-66
2023/03/20 02:18:31;;;;;;;;;;;;;;;-144.99;100.00;52444.03;5021621;28;19983;-65
2023/03/20 02:21:24;;;;;;;;;;;;;;;-144.99;100.00;52423.63;5023642;28;19933;-65
2023/03/20 02:24:15;;;;;;;;;;;;;;;-144.99;100.00;52444.03;5024457;28;19930;-65
2023/03/20 02:26:58;;;;;;;;;;;;;;;-144.99;100.00;52431.78;5025764;28;19943;-65
2023/03/20 02:29:58;;;;;;;;;;;;;;;-144.99;100.00;52423.63;5023304;28;19925;-66
2023/03/20 02:32:52;;;;;;;;;;;;;;;-144.99;100.00;52397.13;5022913;28;20252;-65
2023/03/20 02:35:32;;;;;;;;;;;;;;;-144.99;100.00;52429.75;5031024;28;19982;-66
2023/03/20 02:38:15;;;;;;;;;;;;;;;-144.99;100.00;52439.94;5027754;28;19925;-75
2023/03/20 02:40:44;;;;;;;;;;;;;;;-144.99;100.00;52439.94;5025342;28;20025;-74
2023/03/20 02:43:15;;;;;;;;;;;;;;;-144.99;100.00;52399.19;5023193;28;19935;-75
2023/03/20 02:45:46;;;;;;;;;;;;;;;-144.99;100.00;52407.31;5021483;28;19958;-73
2023/03/20 02:48:16;;;;;;;;;;;;;;;-144.99;100.00;52413.44;5019100;28;19925;-73
2023/03/20 02:50:47;;;;;;;;;;;;;;;-144.99;100.00;52407.31;5027592;28;19925;-72
2023/03/20 02:53:20;;;;;;;;;;;;;;;-144.99;100.00;52415.47;5028864;28;20174;-72
2023/03/20 02:55:49;;;;;;;;;;;;;;;-144.99;100.00;52466.44;5012148;28;20339;-73
2023/03/20 02:58:19;;;;;;;;;;;;;;;-144.99;100.00;52431.78;5022759;28;19925;-73
2023/03/20 03:00:51;;;;;;;;;;;;;;;-144.99;100.00;52427.72;5021702;28;20343;-66
2023/03/20 03:03:21;;;;;;;;;;;;;;;-144.99;100.00;52415.47;5028782;28;20421;-66
2023/03/20 03:05:49;;;;;;;;;;;;;;;-144.99;100.00;52415.47;5020971;28;19928;-66
2023/03/20 03:08:19;;;;;;;;;;;;;;;-144.99;100.00;52427.72;5017223;28;19932;-65
2023/03/20 03:10:49;;;;;;;;;;;;;;;-144.99;100.00;52407.31;5023050;28;20030;-66
2023/03/20 03:13:19;;;;;;;;;;;;;;;-144.99;100.00;52423.63;5029023;28;19968;-66
2023/03/20 03:15:46;;;;;;;;;;;;;;;-144.99;100.00;52439.94;5024872;28;20423;-68
2023/03/20 03:18:15;;;;;;;;;;;;;;;-144.99;100.00;52423.63;5016160;28;19925;-69
2023/03/20 03:20:43;;;;;;;;;;;;;;;-144.99;100.00;52423.63;5025010;28;19929;-71
2023/03/20 03:23:15;;;;;;;;;;;;;;;-144.99;100.00;52460.31;5023997;28;19929;-68
2023/03/20 03:25:42;;;;;;;;;;;;;;;-144.99;100.00;52411.41;5016970;28;20417;-67
2023/03/20 03:28:19;;;;;;;;;;;;;;;-144.99;100.00;52431.78;5011375;28;20232;-69
2023/03/20 03:30:46;;;;;;;;;;;;;;;-144.99;100.00;52441.97;5019578;28;19925;-70
2023/03/20 03:33:15;;;;;;;;;;;;;;;-144.99;100.00;52415.47;5025627;28;19979;-69
2023/03/20 03:35:43;;;;;;;;;;;;;;;-144.99;100.00;52435.88;5027463;28;20019;-69
2023/03/20 03:38:17;;;;;;;;;;;;;;;-144.99;100.00;52415.47;5020635;28;19926;-71
2023/03/20 03:40:46;;;;;;;;;;;;;;;-144.99;100.00;52419.56;5027472;28;19994;-71
2023/03/20 03:43:16;;;;;;;;;;;;;;;-144.99;100.00;52437.91;5028121;28;19932;-65
2023/03/20 03:45:45;;;;;;;;;;;;;;;-144.99;100.00;52403.25;5020454;28;19969;-64
2023/03/20 03:48:15;;;;;;;;;;;;;;;-144.99;100.00;52391.03;5020710;28;20111;-64
2023/03/20 03:50:46;;;;;;;;;;;;;;;-144.99;100.00;52448.09;5025663;28;19937;-65
2023/03/20 03:53:13;;;;;;;;;;;;;;;-144.99;100.00;52403.25;5021999;28;19991;-65
2023/03/20 03:55:43;;;;;;;;;;;;;;;-144.99;100.00;52374.72;5014489;28;20261;-65
2023/03/20 03:58:13;;;;;;;;;;;;;;;-144.99;100.00;52419.56;5019831;28;19929;-65
2023/03/20 04:00:42;;;;;;;;;;;;;;;-144.99;100.00;52435.88;5024549;28;20026;-65
2023/03/20 04:03:09;;;;;;;;;;;;;;;-144.99;100.00;52403.25;5017118;28;19937;-65
2023/03/20 04:05:37;;;;;;;;;;;;;;;-144.99;100.00;52423.63;5009790;28;19939;-64
2023/03/20 04:08:05;;;;;;;;;;;;;;;-144.99;100.00;52419.56;5019835;28;20363;-64
2023/03/20 04:10:31;;;;;;;;;;;;;;;-144.99;100.00;52411.41;5019340;28;20409;-64
2023/03/20 04:12:58;;;;;;;;;;;;;;;-144.99;100.00;52454.22;5027911;28;19988;-64
2023/03/20 04:15:27;;;;;;;;;;;;;;;-144.99;100.00;52460.31;5019292;28;19925;-64
2023/03/20 04:17:53;;;;;;;;;;;;;;;-144.99;100.00;52427.72;5016423;28;19933;-64
2023/03/20 04:20:20;;;;;;;;;;;;;;;-144.99;100.00;52448.09;5018936;28;19933;-64
2023/03/20 04:22:47;;;;;;;;;;;;;;;-144.99;100.00;52415.47;5026260;28;20064;-64
2023/03/20 04:25:16;;;;;;;;;;;;;;;-144.99;100.00;52401.22;5021347;28;19925;-64
2023/03/20 04:27:42;;;;;;;;;;;;;;;-144.99;100.00;52413.44;5025310;28;19955;-65
2023/03/20 04:30:10;;;;;;;;;;;;;;;-144.99;100.00;52419.56;5014638;28;19929;-65
2023/03/20 04:32:38;;;;;;;;;;;;;;;-144.99;100.00;52423.63;5028046;28;20172;-65
2023/03/20 04:35:05;;;;;;;;;;;;;;;-144.99;100.00;52395.09;5010116;28;19929;-66
2023/03/20 04:37:31;;;;;;;;;;;;;;;-144.99;100.00;52401.22;5026178;28;19940;-67
2023/03/20 04:39:58;;;;;;;;;;;;;;;-144.99;100.00;52419.56;5028129;28;19933;-67
2023/03/20 04:42:24;;;;;;;;;;;;;;;-144.99;100.00;52444.03;5016140;28;19995;-65
2023/03/20 04:44:51;;;;;;;;;;;;;;;-144.99;100.00;52415.47;5022195;28;19925;-66
2023/03/20 04:47:17;;;;;;;;;;;;;;;-144.99;100.00;52472.56;5018188;28;19926;-68
2023/03/20 04:49:45;;;;;;;;;;;;;;;-144.99;100.00;52433.81;5028171;28;19969;-70
2023/03/20 04:52:12;;;;;;;;;;;;;;;-144.99;100.00;52399.19;5029500;28;19933;-71
2023/03/20 04:54:38;;;;;;;;;;;;;;;-144.99;100.00;52407.31;5027322;28;20214;-71
2023/03/20 04:57:05;;;;;;;;;;;;;;;-144.99;100.00;52484.78;5026878;28;19930;-64
2023/03/20 04:59:31;;;;;;;;;;;;;;;-144.99;100.00;52464.41;5027167;28;20048;-63
2023/03/20 05:02:00;;;;;;;;;;;;;;;-144.99;100.00;52415.47;5015771;28;19960;-63
2023/03/20 05:04:26;;;;;;;;;;;;;;;-144.99;100.00;52448.09;5023820;28;19964;-63
2023/03/20 05:06:55;;;;;;;;;;;;;;;-144.99;100.00;52423.63;5030589;28;19937;-70
2023/03/20 05:09:22;;;;;;;;;;;;;;;-144.99;100.00;52399.19;5024938;28;19980;-65
2023/03/20 05:11:48;;;;;;;;;;;;;;;-144.99;100.00;52439.94;5021599;28;20402;-65
2023/03/20 05:14:15;;;;;;;;;;;;;;;-144.99;100.00;52431.78;5028235;28;19926;-64
2023/03/20 05:16:41;;;;;;;;;;;;;;;-144.99;100.00;52403.25;5028674;28;20000;-64
2023/03/20 05:19:08;;;;;;;;;;;;;;;-144.99;100.00;52415.47;5032300;28;19925;-63
2023/03/20 05:21:34;;;;;;;;;;;;;;;-144.99;100.00;52431.78;5019207;28;19976;-63
2023/03/20 05:24:02;;;;;;;;;;;;;;;-144.99;100.00;52419.56;5032039;28;19929;-64
2023/03/20 05:26:29;;;;;;;;;;;;;;;-144.99;100.00;52407.31;5021884;28;19980;-66
2023/03/20 05:28:55;;;;;;;;;;;;;;;-144.99;100.00;52425.66;5020122;28;19925;-66
2023/03/20 05:31:22;;;;;;;;;;;;;;;-144.99;100.00;52403.25;5028551;28;20422;-66
2023/03/20 05:33:48;;;;;;;;;;;;;;;-144.99;100.00;52456.25;5025448;28;20063;-66
2023/03/20 05:36:15;;;;;;;;;;;;;;;-144.99;100.00;52431.78;5018436;28;19941;-66
2023/03/20 05:38:41;;;;;;;;;;;;;;;-144.99;100.00;52448.09;5024305;28;20290;-66
2023/03/20 05:41:09;;;;;;;;;;;;;;;-144.99;100.00;52448.09;5023644;28;19929;-67
2023/03/20 05:43:35;;;;;;;;;;;;;;;-144.99;100.00;52431.78;5031083;28;19983;-67
2023/03/20 05:46:02;;;;;;;;;;;;;;;-144.99;100.00;52423.63;5016530;28;19929;-67
2023/03/20 05:48:29;;;;;;;;;;;;;;;-144.99;100.00;52423.63;5025110;28;19955;-66
2023/03/20 05:50:55;;;;;;;;;;;;;;;-144.99;100.00;52431.78;5018770;28;20073;-67
2023/03/20 05:53:22;;;;;;;;;;;;;;;-144.99;100.00;52427.72;5024826;28;19972;-66
2023/03/20 05:55:49;;;;;;;;;;;;;;;-144.99;100.00;52458.28;5027537;28;19971;-67
2023/03/20 05:58:16;;;;;;;;;;;;;;;-144.99;100.00;52386.94;5018324;28;19929;-67
2023/03/20 06:00:43;;;;;;;;;;;;;;;-144.99;100.00;52407.31;5026337;28;19929;-69
2023/03/20 06:03:10;;;;;;;;;;;;;;;-144.99;100.00;52388.97;5021954;28;19925;-69
2023/03/20 06:05:37;;;;;;;;;;;;;;;-144.99;100.00;52391.03;5020613;28;20322;-69
2023/03/20 06:08:04;;;;;;;;;;;;;;;-144.99;100.00;52415.47;5027578;28;20276;-69
2023/03/20 06:10:31;;;;;;;;;;;;;;;-144.99;100.00;52439.94;5024328;28;20133;-69
2023/03/20 06:12:59;;;;;;;;;;;;;;;-144.99;100.00;52444.03;5031145;28;20024;-69
2023/03/20 06:15:28;;;;;;;;;;;;;;;-144.99;100.00;52439.94;5018501;28;19987;-73
2023/03/20 06:17:55;;;;;;;;;;;;;;;-144.99;100.00;52437.91;4677657;28;10000182;-74
2023/03/20 06:20:21;;;;;;;;;;;;;;;-144.99;100.00;52464.41;5019831;28;20374;-73
2023/03/20 06:22:48;;;;;;;;;;;;;;;-144.99;100.00;52456.25;5027776;28;20003;-74
2023/03/20 06:25:14;;;;;;;;;;;;;;;-144.99;100.00;52437.91;5020215;28;19929;-73
2023/03/20 06:27:41;;;;;;;;;;;;;;;-144.99;100.00;52456.25;5021305;28;19929;-74
2023/03/20 06:30:08;;;;;;;;;;;;;;;-144.99;100.00;52419.56;5021831;28;19929;-73
2023/03/20 06:32:36;;;;;;;;;;;;;;;-144.99;100.00;52415.47;5030191;28;19932;-73
2023/03/20 06:35:04;;;;;;;;;;;;;;;-144.99;100.00;52395.09;5017927;28;19933;-73
2023/03/20 06:37:31;;;;;;;;;;;;;;;-144.99;100.00;52419.56;5034024;28;20027;-73
2023/03/20 06:39:57;;;;;;;;;;;;;;;-144.99;100.00;52421.59;5021791;28;19932;-73
2023/03/20 06:42:24;;;;;;;;;;;;;;;-144.99;100.00;52425.66;5025884;28;19960;-73
2023/03/20 06:44:50;;;;;;;;;;;;;;;-144.99;100.00;52435.88;5037464;28;19940;-73
2023/03/20 06:47:17;;;;;;;;;;;;;;;-144.99;100.00;52407.31;5039835;28;19956;-73
2023/03/20 06:49:45;;;;;;;;;;;;;;;-144.99;100.00;52429.75;5029677;28;19925;-74
2023/03/20 06:52:15;;;;;;;;;;;;;;;-144.99;100.00;52437.91;5026660;28;20374;-73
2023/03/20 06:54:42;;;;;;;;;;;;;;;-144.99;100.00;52439.94;5029820;28;19937;-73
2023/03/20 06:57:08;;;;;;;;;;;;;;;-144.99;100.00;52391.03;5016565;28;20012;-73
2023/03/20 06:59:35;;;;;;;;;;;;;;;-144.99;100.00;52395.09;5020787;28;19930;-74
2023/03/20 07:02:02;;;;;;;;;;;;;;;-144.99;100.00;52444.03;5023131;28;20032;-74
2023/03/20 07:04:28;;;;;;;;;;;;;;;-144.99;100.00;52415.47;5026983;28;19925;-73
2023/03/20 07:06:57;;;;;;;;;;;;;;;-144.99;100.00;52427.72;5028357;28;20374;-74
2023/03/20 07:09:23;;;;;;;;;;;;;;;-144.99;100.00;52417.53;5026949;28;19929;-74
2023/03/20 07:11:50;;;;;;;;;;;;;;;-144.99;100.00;52423.63;5027102;28;19929;-73
2023/03/20 07:14:17;;;;;;;;;;;;;;;-144.99;100.00;52419.56;5013105;28;20301;-73
2023/03/20 07:16:43;;;;;;;;;;;;;;;-144.99;100.00;52448.09;5025284;28;19932;-73
2023/03/20 07:19:11;;;;;;;;;;;;;;;-144.99;100.00;52395.09;5023054;28;19929;-74
2023/03/20 07:21:38;;;;;;;;;;;;;;;-144.99;100.00;52460.31;5023670;28;19952;-73
2023/03/20 07:24:07;;;;;;;;;;;;;;;-144.99;100.00;52435.88;5024469;28;19937;-74
2023/03/20 07:26:33;;;;;;;;;;;;;;;-144.99;100.00;52431.78;5032832;28;20063;-74
2023/03/20 07:29:00;;;;;;;;;;;;;;;-144.99;100.00;52407.31;5045994;28;20286;-74
2023/03/20 07:31:29;;;;;;;;;;;;;;;-144.99;100.00;52403.25;5021377;28;19929;-74
2023/03/20 07:33:56;;;;;;;;;;;;;;;-144.99;100.00;52460.31;5019836;28;19988;-73
2023/03/20 07:36:23;;;;;;;;;;;;;;;-144.99;100.00;52407.31;5014900;28;19937;-74
2023/03/20 07:38:49;;;;;;;;;;;;;;;-144.99;100.00;52423.63;5020821;28;20385;-74
2023/03/20 07:41:17;;;;;;;;;;;;;;;-144.99;100.00;52399.19;5019712;28;20003;-74
2023/03/20 07:43:43;;;;;;;;;;;;;;;-144.99;100.00;52403.25;5026497;28;20330;-74
2023/03/20 07:46:10;;;;;;;;;;;;;;;-144.99;100.00;52391.03;5025805;28;19961;-73
2023/03/20 07:48:37;;;;;;;;;;;;;;;-144.99;100.00;52413.44;5022308;28;19947;-73
2023/03/20 07:51:03;;;;;;;;;;;;;;;-144.99;100.00;52423.63;5022420;28;19929;-73
2023/03/20 07:53:30;;;;;;;;;;;;;;;-144.99;100.00;52439.94;5019786;28;19925;-73
2023/03/20 07:55:56;;;;;;;;;;;;;;;-144.99;100.00;52407.31;5015103;28;20348;-73
2023/03/20 07:58:24;;;;;;;;;;;;;;;-144.99;100.00;52399.19;5019477;28;19926;-73
2023/03/20 08:00:51;;;;;;;;;;;;;;;-144.99;100.00;52407.31;5026495;28;20019;-73
2023/03/20 08:03:17;;;;;;;;;;;;;;;-144.99;100.00;52427.72;5026846;28;20341;-73
2023/03/20 08:05:44;;;;;;;;;;;;;;;-144.99;100.00;52427.72;5017083;28;19940;-73
2023/03/20 08:08:11;;;;;;;;;;;;;;;-144.99;100.00;52437.91;5022575;28;19929;-73
2023/03/20 08:10:37;;;;;;;;;;;;;;;-144.99;100.00;52423.63;5035217;28;19929;-73
2023/03/20 08:13:04;;;;;;;;;;;;;;;-144.99;100.00;52374.72;5028762;28;19933;-73
2023/03/20 08:15:32;;;;;;;;;;;;;;;-144.99;100.00;52354.34;5017786;28;19925;-73
2023/03/20 08:17:58;;;;;;;;;;;;;;;-144.99;100.00;52415.47;5022888;28;19930;-73
2023/03/20 08:20:25;;;;;;;;;;;;;;;-144.99;99.72;52391.03;5024670;28;19928;-74
2023/03/20 08:22:52;;;;;;;;;;;;;;;-144.99;100.00;52421.59;5023923;28;20267;-72
2023/03/20 08:25:18;;;;;;;;;;;;;;;-144.99;100.00;52407.31;5025619;28;20310;-72
2023/03/20 08:27:45;;;;;;;;;;;;;;;-144.99;100.00;52419.56;5017243;28;20000;-72
2023/03/20 08:30:12;;;;;;;;;;;;;;;-144.99;99.76;52395.09;5017630;28;20136;-72
2023/03/20 08:32:40;;;;;;;;;;;;;;;-144.99;99.16;52393.06;5020306;28;19936;-72
2023/03/20 08:35:08;;;;;;;;;;;;;;;-144.99;99.31;52378.78;5023519;28;19933;-73
2023/03/20 08:37:36;;;;;;;;;;;;;;;-144.99;98.15;52395.09;5021459;28;20526;-72
2023/03/20 08:40:04;;;;;;;;;;;;;;;-144.99;99.33;52423.63;5021274;28;19929;-72
2023/03/20 08:42:31;;;;;;;;;;;;;;;-144.99;100.00;52417.53;5024392;28;19992;-72
2023/03/20 08:44:58;;;;;;;;;;;;;;;-144.99;100.00;52427.72;5022464;28;20044;-72
2023/03/20 08:47:25;;;;;;;;;;;;;;;-144.99;100.00;52407.31;5023088;28;19929;-72
2023/03/20 08:49:53;;;;;;;;;;;;;;;-144.99;99.94;52403.25;5025670;28;19929;-73
2023/03/20 08:52:19;;;;;;;;;;;;;;;-144.99;100.00;52466.44;5026223;28;19929;-73
2023/03/20 08:54:46;;;;;;;;;;;;;;;-144.99;100.00;52444.03;5011228;28;20582;-73
2023/03/20 08:57:12;;;;;;;;;;;;;;;-144.99;100.00;52391.03;5016351;28;20042;-73
2023/03/20 08:59:39;;;;;;;;;;;;;;;-144.99;97.60;52446.06;5020147;28;19980;-73
2023/03/20 09:02:05;;;;;;;;;;;;;;;-144.99;98.94;52407.31;5016298;28;19961;-73
2023/03/20 09:04:32;;;;;;;;;;;;;;;-144.99;96.90;52378.78;5019482;28;19933;-72
2023/03/20 09:07:01;;;;;;;;;;;;;;;-144.99;97.55;52391.03;5023363;28;19999;-72
2023/03/20 09:09:28;;;;;;;;;;;;;;;-144.99;95.65;52439.94;5022999;28;19968;-72
2023/03/20 09:11:55;;;;;;;;;;;;;;;-144.99;98.04;52391.03;5022789;28;19926;-73
2023/03/20 09:14:22;;;;;;;;;;;;;;;-144.99;96.77;52407.31;5019356;28;19933;-72
2023/03/20 09:16:49;;;;;;;;;;;;;;;-144.99;96.70;52386.94;5020082;28;20006;-73
2023/03/20 09:19:15;;;;;;;;;;;;;;;-144.99;96.61;52382.88;5019024;28;20626;-72
2023/03/20 09:21:42;;;;;;;;;;;;;;;-144.99;96.48;52419.56;5030654;28;19964;-73
2023/03/20 09:24:10;;;;;;;;;;;;;;;-144.99;95.34;52378.78;5016205;28;19991;-72
2023/03/20 09:26:37;;;;;;;;;;;;;;;-144.99;95.25;52441.97;5022213;28;19929;-72
2023/03/20 09:29:03;;;;;;;;;;;;;;;-144.99;94.88;52395.09;5015261;28;19963;-72
2023/03/20 09:31:30;;;;;;;;;;;;;;;-144.99;96.31;52435.88;5032332;28;19925;-72
2023/03/20 09:33:57;;;;;;;;;;;;;;;-144.99;97.39;52452.16;5022418;28;19929;-73
2023/03/20 09:36:24;;;;;;;;;;;;;;;-144.99;96.47;52403.25;5024443;28;19944;-72
2023/03/20 09:38:50;;;;;;;;;;;;;;;-144.99;97.16;52427.72;5023008;28;19930;-72
2023/03/20 09:41:20;;;;;;;;;;;;;;;-144.99;98.03;52452.16;5031885;28;19971;-72
2023/03/20 09:44:00;;;;;;;;;;;;;;;-144.99;98.18;52456.25;5022700;28;19933;-72
2023/03/20 09:46:42;;;;;;;;;;;;;;;-144.99;98.28;52386.94;5025165;28;19925;-72
2023/03/20 09:49:13;;;;;;;;;;;;;;;-144.99;97.43;52423.63;5021911;28;20315;-72
2023/03/20 09:51:43;;;;;;;;;;;;;;;-144.99;96.56;52415.47;5020536;28;20217;-71
2023/03/20 09:54:14;;;;;;;;;;;;;;;-144.99;97.36;52399.19;5025588;28;19964;-70
2023/03/20 09:56:42;;;;;;;;;;;;;;;-144.99;96.82;52395.09;5018206;28;19963;-73
2023/03/20 09:59:14;;;;;;;;;;;;;;;-144.99;97.01;52452.16;5021139;28;19929;-73
2023/03/20 10:01:44;;;;;;;;;;;;;;;-144.99;95.32;52476.63;5022771;28;19944;-72
2023/03/20 10:04:11;;;;;;;;;;;;;;;-144.99;93.22;52378.78;5023092;28;19935;-71
2023/03/20 10:06:38;;;;;;;;;;;;;;;-144.99;92.02;52382.88;5027455;28;19929;-72
2023/03/20 10:09:12;;;;;;;;;;;;;;;-144.99;91.69;52407.31;5018274;28;19937;-72
2023/03/20 10:11:50;;;;;;;;;;;;;;;-144.99;91.02;52391.03;5020667;28;19979;-72
2023/03/20 10:14:21;;;;;;;;;;;;;;;-144.99;91.24;52423.63;5018573;28;19925;-72
2023/03/20 10:17:07;;;;;;;;;;;;;;;-144.99;91.81;52444.03;5021945;28;19936;-72
2023/03/20 10:19:39;;;;;;;;;;;;;;;-144.99;91.93;52393.06;5022323;28;20444;-72
2023/03/20 10:22:11;;;;;;;;;;;;;;;-144.99;93.01;52399.19;5017330;28;19929;-72
2023/03/20 10:24:40;;;;;;;;;;;;;;;-144.99;93.42;52431.78;5021461;28;20470;-72
2023/03/20 10:27:14;;;;;;;;;;;;;;;-144.99;92.23;52419.56;5022218;28;19929;-72
2023/03/20 10:29:47;;;;;;;;;;;;;;;-144.99;91.30;52401.22;5016994;28;19933;-73
2023/03/20 10:32:19;;;;;;;;;;;;;;;-144.99;92.27;52380.84;5023878;28;19991;-72
2023/03/20 10:34:53;;;;;;;;;;;;;;;-144.99;92.47;52407.31;5024368;28;19925;-72
2023/03/20 10:37:26;;;;;;;;;;;;;;;-144.99;91.22;52374.72;5022073;28;19925;-72
2023/03/20 10:39:57;;;;;;;;;;;;;;;-144.99;91.14;52407.31;5023534;28;19932;-72
2023/03/20 10:42:28;;;;;;;;;;;;;;;-144.99;91.29;52423.63;5023907;28;19933;-72
2023/03/20 10:44:58;;;;;;;;;;;;;;;-144.99;89.42;52452.16;5028321;28;19933;-72
2023/03/20 10:47:26;;;;;;;;;;;;;;;-144.99;89.46;52435.88;5025222;28;20009;-72
2023/03/20 10:49:54;;;;;;;;;;;;;;;-144.99;91.48;52431.78;5023162;28;19972;-73
2023/03/20 10:52:25;;;;;;;;;;;;;;;-144.99;90.80;52407.31;5014264;28;19979;-72
2023/03/20 10:54:54;;;;;;;;;;;;;;;-144.99;91.51;52415.47;5022994;28;19932;-73
2023/03/20 10:57:23;;;;;;;;;;;;;;;-144.99;91.02;52409.38;5017880;28;19932;-73
2023/03/20 10:59:52;;;;;;;;;;;;;;;-144.99;90.59;52407.31;5009763;28;19940;-73
2023/03/20 11:02:20;;;;;;;;;;;;;;;-144.99;90.39;52419.56;5025497;28;19968;-71
2023/03/20 11:04:46;;;;;;;;;;;;;;;-144.99;90.42;52382.88;5021413;28;20035;-71
2023/03/20 11:07:19;;;;;;;;;;;;;;;-144.99;90.18;52439.94;5024722;28;19968;-72
2023/03/20 11:09:46;;;;;;;;;;;;;;;-144.99;90.48;52427.72;5027783;28;19925;-72
2023/03/20 11:12:16;;;;;;;;;;;;;;;-144.99;89.48;52386.94;5026341;28;19991;-72
2023/03/20 11:14:43;;;;;;;;;;;;;;;-144.99;89.92;52431.78;5019605;28;20015;-72
2023/03/20 11:17:12;;;;;;;;;;;;;;;-144.99;89.84;52423.63;5015838;28;20019;-71
2023/03/20 11:19:39;;;;;;;;;;;;;;;-144.99;89.79;52488.84;5023132;28;20263;-72
2023/03/20 11:22:08;;;;;;;;;;;;;;;-144.99;89.78;52378.78;5022430;28;20182;-72
2023/03/20 11:24:36;;;;;;;;;;;;;;;-144.99;89.44;52423.63;5030304;28;19929;-73
2023/03/20 11:27:07;;;;;;;;;;;;;;;-144.99;88.99;52448.09;5019012;28;20306;-72
2023/03/20 11:29:35;;;;;;;;;;;;;;;-144.99;88.92;52399.19;4673167;28;10000124;-71
2023/03/20 11:32:06;;;;;;;;;;;;;;;-144.99;88.82;52419.56;5016278;28;19929;-72
2023/03/20 11:34:36;;;;;;;;;;;;;;;-144.99;89.55;52448.09;5017466;28;20091;-71
2023/03/20 11:37:06;;;;;;;;;;;;;;;-144.99;89.75;52401.22;5018611;28;20451;-72
2023/03/20 11:39:34;;;;;;;;;;;;;;;-144.99;89.78;52444.03;5013312;28;20359;-72
2023/03/20 11:42:01;;;;;;;;;;;;;;;-144.99;88.60;52419.56;5022123;28;20425;-73
2023/03/20 11:44:28;;;;;;;;;;;;;;;-144.99;88.05;52431.78;5021274;28;20330;-74
2023/03/20 11:46:56;;;;;;;;;;;;;;;-144.99;87.99;52468.47;5017611;28;20033;-72
2023/03/20 11:49:24;;;;;;;;;;;;;;;-144.99;87.61;52478.66;5024252;28;19933;-72
2023/03/20 11:51:53;;;;;;;;;;;;;;;-144.99;87.71;52448.09;5024675;28;19929;-72
2023/03/20 11:54:22;;;;;;;;;;;;;;;-144.99;87.53;52419.56;5015330;28;20375;-72
2023/03/20 11:56:54;;;;;;;;;;;;;;;-144.99;86.61;52435.88;5021721;28;19928;-72
2023/03/20 11:59:21;;;;;;;;;;;;;;;-144.99;86.42;52419.56;5023683;28;19933;-71
2023/03/20 12:01:50;;;;;;;;;;;;;;;-144.99;86.53;52399.19;5028107;28;19983;-73
2023/03/20 12:04:17;;;;;;;;;;;;;;;-144.99;86.66;52444.03;5026105;28;19963;-72
2023/03/20 12:06:51;;;;;;;;;;;;;;;-144.99;85.67;52452.16;5023435;28;19925;-72
2023/03/20 12:09:26;;;;;;;;;;;;;;;-144.99;85.26;52399.19;5013877;28;20150;-71
2023/03/20 12:11:55;;;;;;;;;;;;;;;-144.99;82.94;52421.59;5022812;28;19926;-72
2023/03/20 12:14:27;;;;;;;;;;;;;;;-144.99;84.91;52427.72;5019495;28;19968;-72
2023/03/20 12:16:58;;;;;;;;;;;;;;;-144.99;84.09;52431.78;5023802;28;19933;-72
2023/03/20 12:19:29;;;;;;;;;;;;;;;-144.99;84.15;52431.78;5019747;28;19944;-73
2023/03/20 12:22:02;;;;;;;;;;;;;;;-144.99;84.08;52415.47;5021052;28;19938;-72
2023/03/20 12:24:35;;;;;;;;;;;;;;;-144.99;83.85;52391.03;5022019;28;20031;-71
2023/03/20 12:27:11;;;;;;;;;;;;;;;-144.99;83.43;52403.25;5016021;28;20333;-72
2023/03/20 12:29:40;;;;;;;;;;;;;;;-144.99;82.86;52407.31;5021109;28;19929;-71